sensor_id;sensor_type;location;lat;lon;timestamp;pressure;altitude;pressure_sealevel;temperature;humidity
11302;BME280;5706;50.650;13.380;2023-01-28T00:02:29;56469.41;;;-140.63;71.25
11302;BME280;5706;50.650;13.380;2023-01-28T00:11:20;56429.63;;;-140.63;70.17
11302;BME280;5706;50.650;13.380;2023-01-28T00:14:17;56427.66;;;-140.63;70.60
11302;BME280;5706;50.650;13.380;2023-01-28T00:22:01;56449.50;;;-140.63;70.58
11302;BME280;5706;50.650;13.380;2023-01-28T00:25:00;56461.44;;;-140.63;71.41
11302;BME280;5706;50.650;13.380;2023-01-28T00:27:38;56449.50;;;-140.63;70.40
11302;BME280;5706;50.650;13.380;2023-01-28T00:30:53;56441.56;;;-140.63;70.80
11302;BME280;5706;50.650;13.380;2023-01-28T00:33:40;56449.50;;;-140.63;71.31
11302;BME280;5706;50.650;13.380;2023-01-28T00:36:43;56455.47;;;-140.63;71.47
11302;BME280;5706;50.650;13.380;2023-01-28T00:40:26;56439.56;;;-140.63;71.05
11302;BME280;5706;50.650;13.380;2023-01-28T00:43:35;56409.75;;;-140.63;71.09
11302;BME280;5706;50.650;13.380;2023-01-28T00:46:42;56495.25;;;-140.63;71.04
11302;BME280;5706;50.650;13.380;2023-01-28T00:49:43;56427.66;;;-140.63;71.13
11302;BME280;5706;50.650;13.380;2023-01-28T00:53:04;56495.25;;;-140.63;70.86
11302;BME280;5706;50.650;13.380;2023-01-28T00:55:57;56457.47;;;-140.63;70.82
11302;BME280;5706;50.650;13.380;2023-01-28T00:58:43;56473.38;;;-140.63;70.81
11302;BME280;5706;50.650;13.380;2023-01-28T01:01:35;56477.34;;;-140.63;70.57
11302;BME280;5706;50.650;13.380;2023-01-28T01:04:13;56467.41;;;-140.63;70.95
11302;BME280;5706;50.650;13.380;2023-01-28T01:07:10;56453.50;;;-140.63;71.07
11302;BME280;5706;50.650;13.380;2023-01-28T01:10:05;56473.38;;;-140.63;70.82
11302;BME280;5706;50.650;13.380;2023-01-28T09:38:24;56505.19;;;-140.63;66.90
11302;BME280;5706;50.650;13.380;2023-01-28T09:40:52;56525.06;;;-140.63;67.17
11302;BME280;5706;50.650;13.380;2023-01-28T09:43:39;56463.44;;;-140.63;67.54
11302;BME280;5706;50.650;13.380;2023-01-28T09:46:28;56453.50;;;-140.63;67.24
11302;BME280;5706;50.650;13.380;2023-01-28T09:49:35;56497.25;;;-140.63;67.21
11302;BME280;5706;50.650;13.380;2023-01-28T09:59:27;56495.25;;;-140.63;65.96
11302;BME280;5706;50.650;13.380;2023-01-28T10:05:35;56461.44;;;-140.63;65.99
11302;BME280;5706;50.650;13.380;2023-01-28T10:08:20;56487.28;;;-140.63;66.82
11302;BME280;5706;50.650;13.380;2023-01-28T10:11:05;56479.34;;;-140.63;66.88
11302;BME280;5706;50.650;13.380;2023-01-28T10:13:47;56443.56;;;-140.63;66.01
11302;BME280;5706;50.650;13.380;2023-01-28T10:16:27;56493.25;;;-140.63;66.25
11302;BME280;5706;50.650;13.380;2023-01-28T10:19:06;56453.50;;;-140.63;66.03
11302;BME280;5706;50.650;13.380;2023-01-28T10:21:42;56481.31;;;-140.63;65.48
11302;BME280;5706;50.650;13.380;2023-01-28T10:24:17;56455.47;;;-140.63;64.82
11302;BME280;5706;50.650;13.380;2023-01-28T10:26:51;56463.44;;;-140.63;64.90
11302;BME280;5706;50.650;13.380;2023-01-28T10:29:23;56463.44;;;-140.63;65.40
11302;BME280;5706;50.650;13.380;2023-01-28T10:31:54;56445.53;;;-140.63;65.98
11302;BME280;5706;50.650;13.380;2023-01-28T10:34:30;56481.31;;;-140.63;64.88
11302;BME280;5706;50.650;13.380;2023-01-28T10:36:58;56487.28;;;-140.63;64.37
11302;BME280;5706;50.650;13.380;2023-01-28T10:39:27;56475.38;;;-140.63;63.43
11302;BME280;5706;50.650;13.380;2023-01-28T10:41:56;56469.41;;;-140.63;64.77
11302;BME280;5706;50.650;13.380;2023-01-28T10:44:31;56437.59;;;-140.63;64.37
11302;BME280;5706;50.650;13.380;2023-01-28T10:47:09;56459.47;;;-140.63;65.16
11302;BME280;5706;50.650;13.380;2023-01-28T10:49:44;56465.41;;;-140.63;64.12
11302;BME280;5706;50.650;13.380;2023-01-28T10:52:17;56485.31;;;-140.63;63.84
11302;BME280;5706;50.650;13.380;2023-01-28T10:54:45;56457.47;;;-140.63;63.58
11302;BME280;5706;50.650;13.380;2023-01-28T10:57:15;56479.34;;;-140.63;64.70
11302;BME280;5706;50.650;13.380;2023-01-28T10:59:45;56521.09;;;-140.63;63.44
11302;BME280;5706;50.650;13.380;2023-01-28T11:02:28;56467.41;;;-140.63;64.31
11302;BME280;5706;50.650;13.380;2023-01-28T11:05:02;56483.31;;;-140.63;63.82
11302;BME280;5706;50.650;13.380;2023-01-28T11:07:31;56483.31;;;-140.63;63.27
11302;BME280;5706;50.650;13.380;2023-01-28T11:09:59;56513.16;;;-140.63;63.41
11302;BME280;5706;50.650;13.380;2023-01-28T11:12:28;56459.47;;;-140.63;63.88
11302;BME280;5706;50.650;13.380;2023-01-28T11:14:58;56451.50;;;-140.63;63.29
11302;BME280;5706;50.650;13.380;2023-01-28T11:17:31;56447.53;;;-140.63;63.09
11302;BME280;5706;50.650;13.380;2023-01-28T11:20:10;56483.31;;;-140.63;62.23
11302;BME280;5706;50.650;13.380;2023-01-28T11:22:43;56461.44;;;-140.63;62.93
11302;BME280;5706;50.650;13.380;2023-01-28T11:25:16;56449.50;;;-140.63;62.49
11302;BME280;5706;50.650;13.380;2023-01-28T11:27:50;56457.47;;;-140.63;62.34
11302;BME280;5706;50.650;13.380;2023-01-28T11:30:23;56503.19;;;-140.63;62.36
11302;BME280;5706;50.650;13.380;2023-01-28T11:32:55;56487.28;;;-140.63;63.44
11302;BME280;5706;50.650;13.380;2023-01-28T11:35:27;56477.34;;;-140.63;61.96
11302;BME280;5706;50.650;13.380;2023-01-28T11:37:57;56509.16;;;-140.63;61.94
11302;BME280;5706;50.650;13.380;2023-01-28T11:40:26;56449.50;;;-140.63;61.90
11302;BME280;5706;50.650;13.380;2023-01-28T11:42:55;56441.56;;;-140.63;63.24
11302;BME280;5706;50.650;13.380;2023-01-28T11:45:32;56491.28;;;-140.63;61.76
11302;BME280;5706;50.650;13.380;2023-01-28T11:48:17;56455.47;;;-140.63;62.11
11302;BME280;5706;50.650;13.380;2023-01-28T11:50:56;56453.50;;;-140.63;62.58
11302;BME280;5706;50.650;13.380;2023-01-28T11:54:00;56449.50;;;-140.63;63.04
11302;BME280;5706;50.650;13.380;2023-01-28T11:56:55;56483.31;;;-140.63;63.19
11302;BME280;5706;50.650;13.380;2023-01-28T11:59:45;56467.41;;;-140.63;62.84
11302;BME280;5706;50.650;13.380;2023-01-28T12:02:36;56435.59;;;-140.63;63.02
11302;BME280;5706;50.650;13.380;2023-01-28T12:05:24;56455.47;;;-140.63;63.35
11302;BME280;5706;50.650;13.380;2023-01-28T12:08:10;56471.38;;;-140.63;63.22
11302;BME280;5706;50.650;13.380;2023-01-28T12:10:56;56439.56;;;-140.63;62.81
11302;BME280;5706;50.650;13.380;2023-01-28T12:13:49;56459.47;;;-140.63;62.46
11302;BME280;5706;50.650;13.380;2023-01-28T12:16:40;56477.34;;;-140.63;63.12
11302;BME280;5706;50.650;13.380;2023-01-28T12:19:30;56449.50;;;-140.63;62.67
11302;BME280;5706;50.650;13.380;2023-01-28T12:22:41;56479.34;;;-140.63;62.12
11302;BME280;5706;50.650;13.380;2023-01-28T12:26:01;56445.53;;;-140.63;62.92
11302;BME280;5706;50.650;13.380;2023-01-28T12:28:53;56499.22;;;-140.63;62.09
11302;BME280;5706;50.650;13.380;2023-01-28T12:32:05;56449.50;;;-140.63;62.85
11302;BME280;5706;50.650;13.380;2023-01-28T12:38:13;56423.66;;;-140.63;62.82
11302;BME280;5706;50.650;13.380;2023-01-28T12:40:54;56509.16;;;-140.63;62.62
11302;BME280;5706;50.650;13.380;2023-01-28T12:43:43;56455.47;;;-140.63;62.42
11302;BME280;5706;50.650;13.380;2023-01-28T12:46:31;56479.34;;;-140.63;62.16
11302;BME280;5706;50.650;13.380;2023-01-28T12:49:09;56495.25;;;-140.63;63.42
11302;BME280;5706;50.650;13.380;2023-01-28T12:51:52;56453.50;;;-140.63;63.52
11302;BME280;5706;50.650;13.380;2023-01-28T12:54:28;56485.31;;;-140.63;62.76
11302;BME280;5706;50.650;13.380;2023-01-28T12:57:01;56493.25;;;-140.63;62.99
11302;BME280;5706;50.650;13.380;2023-01-28T12:59:36;56461.44;;;-140.63;63.25
11302;BME280;5706;50.650;13.380;2023-01-28T13:02:20;56453.50;;;-140.63;63.46
11302;BME280;5706;50.650;13.380;2023-01-28T13:04:57;56457.47;;;-140.63;62.90
11302;BME280;5706;50.650;13.380;2023-01-28T13:07:37;56461.44;;;-140.63;62.59
11302;BME280;5706;50.650;13.380;2023-01-28T13:10:16;56435.59;;;-140.63;63.18
11302;BME280;5706;50.650;13.380;2023-01-28T13:12:50;56417.69;;;-140.63;63.05
11302;BME280;5706;50.650;13.380;2023-01-28T13:15:20;56449.50;;;-140.63;62.68
11302;BME280;5706;50.650;13.380;2023-01-28T13:17:53;56467.41;;;-140.63;62.50
11302;BME280;5706;50.650;13.380;2023-01-28T13:20:35;56469.41;;;-140.63;62.12
11302;BME280;5706;50.650;13.380;2023-01-28T13:23:22;56459.47;;;-140.63;63.14
11302;BME280;5706;50.650;13.380;2023-01-28T13:26:23;56453.50;;;-140.63;62.76
11302;BME280;5706;50.650;13.380;2023-01-28T13:29:32;56441.56;;;-140.63;63.56
11302;BME280;5706;50.650;13.380;2023-01-28T13:32:23;56461.44;;;-140.63;63.53
11302;BME280;5706;50.650;13.380;2023-01-28T13:34:57;56453.50;;;-140.63;63.28
11302;BME280;5706;50.650;13.380;2023-01-28T13:37:31;56465.41;;;-140.63;62.76
11302;BME280;5706;50.650;13.380;2023-01-28T13:40:06;56443.56;;;-140.63;62.36
11302;BME280;5706;50.650;13.380;2023-01-28T13:42:58;56463.44;;;-140.63;63.29
11302;BME280;5706;50.650;13.380;2023-01-28T13:45:29;56469.41;;;-140.63;62.41
11302;BME280;5706;50.650;13.380;2023-01-28T13:48:04;56473.38;;;-140.63;62.29
11302;BME280;5706;50.650;13.380;2023-01-28T13:50:45;56493.25;;;-140.63;61.92
11302;BME280;5706;50.650;13.380;2023-01-28T13:53:27;56461.44;;;-140.63;62.10
11302;BME280;5706;50.650;13.380;2023-01-28T13:56:17;56457.47;;;-140.63;61.33
11302;BME280;5706;50.650;13.380;2023-01-28T13:59:16;56445.53;;;-140.63;61.43
11302;BME280;5706;50.650;13.380;2023-01-28T14:02:26;56447.53;;;-140.63;60.85
11302;BME280;5706;50.650;13.380;2023-01-28T14:05:51;56427.66;;;-140.63;62.02
11302;BME280;5706;50.650;13.380;2023-01-28T14:08:53;56493.25;;;-140.63;62.16
11302;BME280;5706;50.650;13.380;2023-01-28T14:12:00;56455.47;;;-140.63;62.24
11302;BME280;5706;50.650;13.380;2023-01-28T14:15:12;56433.59;;;-140.63;61.94
11302;BME280;5706;50.650;13.380;2023-01-28T14:18:20;56497.25;;;-140.63;62.18
11302;BME280;5706;50.650;13.380;2023-01-28T14:20:53;56493.25;;;-140.63;62.16
11302;BME280;5706;50.650;13.380;2023-01-28T14:23:25;56481.31;;;-140.63;62.08
11302;BME280;5706;50.650;13.380;2023-01-28T14:26:06;56461.44;;;-140.63;62.72
11302;BME280;5706;50.650;13.380;2023-01-28T14:28:50;56473.38;;;-140.63;62.42
11302;BME280;5706;50.650;13.380;2023-01-28T14:31:28;56451.50;;;-140.63;63.50
11302;BME280;5706;50.650;13.380;2023-01-28T14:34:05;56439.56;;;-140.63;64.27
11302;BME280;5706;50.650;13.380;2023-01-28T14:36:40;56485.31;;;-140.63;63.65
11302;BME280;5706;50.650;13.380;2023-01-28T14:39:15;56457.47;;;-140.63;63.88
11302;BME280;5706;50.650;13.380;2023-01-28T14:41:47;56453.50;;;-140.63;63.04
11302;BME280;5706;50.650;13.380;2023-01-28T14:44:26;56427.66;;;-140.63;63.19
11302;BME280;5706;50.650;13.380;2023-01-28T14:47:13;56457.47;;;-140.63;62.87
11302;BME280;5706;50.650;13.380;2023-01-28T14:50:09;56461.44;;;-140.63;62.77
11302;BME280;5706;50.650;13.380;2023-01-28T14:53:07;56491.28;;;-140.63;62.69
11302;BME280;5706;50.650;13.380;2023-01-28T14:55:54;56463.44;;;-140.63;63.86
11302;BME280;5706;50.650;13.380;2023-01-28T14:58:30;56441.56;;;-140.63;63.61
11302;BME280;5706;50.650;13.380;2023-01-28T15:01:04;56457.47;;;-140.63;64.62
11302;BME280;5706;50.650;13.380;2023-01-28T15:03:44;56443.56;;;-140.63;64.36
11302;BME280;5706;50.650;13.380;2023-01-28T15:06:14;56487.28;;;-140.63;64.07
11302;BME280;5706;50.650;13.380;2023-01-28T15:08:44;56491.28;;;-140.63;65.29
11302;BME280;5706;50.650;13.380;2023-01-28T15:11:15;56447.53;;;-140.63;64.14
11302;BME280;5706;50.650;13.380;2023-01-28T15:13:47;56453.50;;;-140.63;64.67
11302;BME280;5706;50.650;13.380;2023-01-28T15:16:20;56485.31;;;-140.63;64.74
11302;BME280;5706;50.650;13.380;2023-01-28T15:18:50;56453.50;;;-140.63;64.08
11302;BME280;5706;50.650;13.380;2023-01-28T15:21:19;56501.22;;;-140.63;63.34
11302;BME280;5706;50.650;13.380;2023-01-28T15:23:50;56487.28;;;-140.63;63.80
11302;BME280;5706;50.650;13.380;2023-01-28T15:26:24;56481.31;;;-140.63;63.37
11302;BME280;5706;50.650;13.380;2023-01-28T15:28:55;56461.44;;;-140.63;63.36
11302;BME280;5706;50.650;13.380;2023-01-28T15:31:26;56479.34;;;-140.63;63.53
11302;BME280;5706;50.650;13.380;2023-01-28T15:33:56;56465.41;;;-140.63;63.35
11302;BME280;5706;50.650;13.380;2023-01-28T15:36:25;56499.22;;;-140.63;63.60
11302;BME280;5706;50.650;13.380;2023-01-28T15:38:54;56469.41;;;-140.63;63.27
11302;BME280;5706;50.650;13.380;2023-01-28T15:41:26;56455.47;;;-140.63;63.02
11302;BME280;5706;50.650;13.380;2023-01-28T15:43:59;56423.66;;;-140.63;63.29
11302;BME280;5706;50.650;13.380;2023-01-28T15:46:31;56491.28;;;-140.63;63.69
11302;BME280;5706;50.650;13.380;2023-01-28T15:49:13;56501.22;;;-140.63;63.36
11302;BME280;5706;50.650;13.380;2023-01-28T15:51:47;56451.50;;;-140.63;63.12
11302;BME280;5706;50.650;13.380;2023-01-28T15:54:16;56475.38;;;-140.63;63.68
11302;BME280;5706;50.650;13.380;2023-01-28T15:56:45;56461.44;;;-140.63;63.57
11302;BME280;5706;50.650;13.380;2023-01-28T15:59:28;56483.31;;;-140.63;63.57
11302;BME280;5706;50.650;13.380;2023-01-28T16:02:25;56499.22;;;-140.63;63.75
11302;BME280;5706;50.650;13.380;2023-01-28T16:05:41;56491.28;;;-140.63;62.44
11302;BME280;5706;50.650;13.380;2023-01-28T16:08:36;56477.34;;;-140.63;62.34
11302;BME280;5706;50.650;13.380;2023-01-28T16:11:08;56477.34;;;-140.63;63.04
11302;BME280;5706;50.650;13.380;2023-01-28T16:13:41;56459.47;;;-140.63;62.03
11302;BME280;5706;50.650;13.380;2023-01-28T16:16:10;56453.50;;;-140.63;62.15
11302;BME280;5706;50.650;13.380;2023-01-28T16:19:18;56465.41;;;-140.63;62.16
11302;BME280;5706;50.650;13.380;2023-01-28T16:21:55;56471.38;;;-140.63;61.89
11302;BME280;5706;50.650;13.380;2023-01-28T16:24:25;56515.13;;;-140.63;61.96
11302;BME280;5706;50.650;13.380;2023-01-28T16:26:55;56469.41;;;-140.63;62.37
11302;BME280;5706;50.650;13.380;2023-01-28T16:29:25;56475.38;;;-140.63;61.72
11302;BME280;5706;50.650;13.380;2023-01-28T16:31:54;56453.50;;;-140.63;62.25
11302;BME280;5706;50.650;13.380;2023-01-28T16:34:25;56491.28;;;-140.63;62.15
11302;BME280;5706;50.650;13.380;2023-01-28T16:36:59;56451.50;;;-140.63;61.92
11302;BME280;5706;50.650;13.380;2023-01-28T16:39:31;56429.63;;;-140.63;61.74
11302;BME280;5706;50.650;13.380;2023-01-28T16:41:59;56497.25;;;-140.63;62.41
11302;BME280;5706;50.650;13.380;2023-01-28T16:44:27;56479.34;;;-140.63;61.81
11302;BME280;5706;50.650;13.380;2023-01-28T16:46:54;56449.50;;;-140.63;61.52
11302;BME280;5706;50.650;13.380;2023-01-28T16:49:22;56511.16;;;-140.63;61.46
11302;BME280;5706;50.650;13.380;2023-01-28T16:51:51;56479.34;;;-140.63;62.56
11302;BME280;5706;50.650;13.380;2023-01-28T16:54:19;56475.38;;;-140.63;62.35
11302;BME280;5706;50.650;13.380;2023-01-28T16:56:47;56461.44;;;-140.63;62.54
11302;BME280;5706;50.650;13.380;2023-01-28T16:59:16;56465.41;;;-140.63;62.35
11302;BME280;5706;50.650;13.380;2023-01-28T17:01:43;56453.50;;;-140.63;61.87
11302;BME280;5706;50.650;13.380;2023-01-28T17:04:12;56457.47;;;-140.63;61.60
11302;BME280;5706;50.650;13.380;2023-01-28T17:06:42;56437.59;;;-140.63;61.71
11302;BME280;5706;50.650;13.380;2023-01-28T17:09:10;56465.41;;;-140.63;62.04
11302;BME280;5706;50.650;13.380;2023-01-28T17:11:39;56487.28;;;-140.63;61.99
11302;BME280;5706;50.650;13.380;2023-01-28T17:14:07;56475.38;;;-140.63;61.74
11302;BME280;5706;50.650;13.380;2023-01-28T17:16:35;56481.31;;;-140.63;61.76
11302;BME280;5706;50.650;13.380;2023-01-28T17:19:03;56481.31;;;-140.63;62.51
11302;BME280;5706;50.650;13.380;2023-01-28T17:21:30;56481.31;;;-140.63;63.05
11302;BME280;5706;50.650;13.380;2023-01-28T17:24:00;56453.50;;;-140.63;63.51
11302;BME280;5706;50.650;13.380;2023-01-28T17:26:29;56485.31;;;-140.63;62.76
11302;BME280;5706;50.650;13.380;2023-01-28T17:28:58;56457.47;;;-140.63;61.94
11302;BME280;5706;50.650;13.380;2023-01-28T17:31:26;56469.41;;;-140.63;62.42
11302;BME280;5706;50.650;13.380;2023-01-28T17:33:54;56453.50;;;-140.63;62.30
11302;BME280;5706;50.650;13.380;2023-01-28T17:36:24;56485.31;;;-140.63;62.31
11302;BME280;5706;50.650;13.380;2023-01-28T17:38:52;56481.31;;;-140.63;61.18
11302;BME280;5706;50.650;13.380;2023-01-28T17:41:22;56463.44;;;-140.63;62.12
11302;BME280;5706;50.650;13.380;2023-01-28T17:43:50;56461.44;;;-140.63;61.70
11302;BME280;5706;50.650;13.380;2023-01-28T17:46:18;56445.53;;;-140.63;61.89
11302;BME280;5706;50.650;13.380;2023-01-28T17:48:48;56451.50;;;-140.63;62.37
11302;BME280;5706;50.650;13.380;2023-01-28T17:51:16;56445.53;;;-140.63;62.41
11302;BME280;5706;50.650;13.380;2023-01-28T17:53:45;56459.47;;;-140.63;61.84
11302;BME280;5706;50.650;13.380;2023-01-28T17:56:15;56461.44;;;-140.63;62.44
11302;BME280;5706;50.650;13.380;2023-01-28T17:58:49;56461.44;;;-140.63;62.28
11302;BME280;5706;50.650;13.380;2023-01-28T18:01:17;56447.53;;;-140.63;62.54
11302;BME280;5706;50.650;13.380;2023-01-28T18:03:46;56483.31;;;-140.63;62.97
11302;BME280;5706;50.650;13.380;2023-01-28T18:06:13;56481.31;;;-140.63;62.59
11302;BME280;5706;50.650;13.380;2023-01-28T18:08:42;56473.38;;;-140.63;62.25
11302;BME280;5706;50.650;13.380;2023-01-28T18:11:12;56509.16;;;-140.63;62.64
11302;BME280;5706;50.650;13.380;2023-01-28T18:13:42;56461.44;;;-140.63;62.84
11302;BME280;5706;50.650;13.380;2023-01-28T18:16:14;56471.38;;;-140.63;62.66
11302;BME280;5706;50.650;13.380;2023-01-28T18:18:45;56505.19;;;-140.63;62.80
11302;BME280;5706;50.650;13.380;2023-01-28T18:21:21;56471.38;;;-140.63;63.02
11302;BME280;5706;50.650;13.380;2023-01-28T18:23:57;56433.59;;;-140.63;63.20
11302;BME280;5706;50.650;13.380;2023-01-28T18:26:25;56455.47;;;-140.63;62.59
11302;BME280;5706;50.650;13.380;2023-01-28T18:28:53;56433.59;;;-140.63;62.87
11302;BME280;5706;50.650;13.380;2023-01-28T18:31:22;56423.66;;;-140.63;63.24
11302;BME280;5706;50.650;13.380;2023-01-28T18:33:50;56453.50;;;-140.63;63.75
11302;BME280;5706;50.650;13.380;2023-01-28T18:36:17;56475.38;;;-140.63;63.43
11302;BME280;5706;50.650;13.380;2023-01-28T18:38:45;56445.53;;;-140.63;63.29
11302;BME280;5706;50.650;13.380;2023-01-28T18:41:13;56443.56;;;-140.63;63.47
11302;BME280;5706;50.650;13.380;2023-01-28T18:43:41;56493.25;;;-140.63;63.24
11302;BME280;5706;50.650;13.380;2023-01-28T18:46:10;56429.63;;;-140.63;63.21
11302;BME280;5706;50.650;13.380;2023-01-28T18:48:40;56447.53;;;-140.63;63.47
11302;BME280;5706;50.650;13.380;2023-01-28T18:51:11;56493.25;;;-140.63;64.05
11302;BME280;5706;50.650;13.380;2023-01-28T18:53:39;56481.31;;;-140.63;63.93
11302;BME280;5706;50.650;13.380;2023-01-28T18:56:07;56469.41;;;-140.63;63.75
11302;BME280;5706;50.650;13.380;2023-01-28T18:58:35;56467.41;;;-140.63;64.07
11302;BME280;5706;50.650;13.380;2023-01-28T19:01:06;56457.47;;;-140.63;63.61
11302;BME280;5706;50.650;13.380;2023-01-28T19:03:34;56463.44;;;-140.63;64.47
11302;BME280;5706;50.650;13.380;2023-01-28T19:06:04;56485.31;;;-140.63;65.21
11302;BME280;5706;50.650;13.380;2023-01-28T19:08:33;56427.66;;;-140.63;65.05
11302;BME280;5706;50.650;13.380;2023-01-28T19:11:01;56469.41;;;-140.63;64.88
11302;BME280;5706;50.650;13.380;2023-01-28T19:13:29;56445.53;;;-140.63;65.00
11302;BME280;5706;50.650;13.380;2023-01-28T19:16:00;56463.44;;;-140.63;64.57
11302;BME280;5706;50.650;13.380;2023-01-28T19:18:30;56477.34;;;-140.63;64.52
11302;BME280;5706;50.650;13.380;2023-01-28T19:21:00;56427.66;;;-140.63;65.02
11302;BME280;5706;50.650;13.380;2023-01-28T19:23:30;56477.34;;;-140.63;64.95
11302;BME280;5706;50.650;13.380;2023-01-28T19:26:01;56457.47;;;-140.63;64.68
11302;BME280;5706;50.650;13.380;2023-01-28T19:28:30;56467.41;;;-140.63;65.15
11302;BME280;5706;50.650;13.380;2023-01-28T19:30:58;56485.31;;;-140.63;65.03
11302;BME280;5706;50.650;13.380;2023-01-28T19:33:26;56473.38;;;-140.63;65.06
11302;BME280;5706;50.650;13.380;2023-01-28T19:35:54;56483.31;;;-140.63;64.92
11302;BME280;5706;50.650;13.380;2023-01-28T19:38:22;56431.63;;;-140.63;65.14
11302;BME280;5706;50.650;13.380;2023-01-28T19:40:52;56465.41;;;-140.63;65.65
11302;BME280;5706;50.650;13.380;2023-01-28T19:43:20;56485.31;;;-140.63;65.40
11302;BME280;5706;50.650;13.380;2023-01-28T19:45:54;56439.56;;;-140.63;65.73
11302;BME280;5706;50.650;13.380;2023-01-28T19:48:22;56469.41;;;-140.63;65.77
11302;BME280;5706;50.650;13.380;2023-01-28T19:50:50;56469.41;;;-140.63;65.59
11302;BME280;5706;50.650;13.380;2023-01-28T19:53:17;56473.38;;;-140.63;65.63
11302;BME280;5706;50.650;13.380;2023-01-28T19:55:45;56487.28;;;-140.63;65.85
11302;BME280;5706;50.650;13.380;2023-01-28T19:58:15;56495.25;;;-140.63;65.45
11302;BME280;5706;50.650;13.380;2023-01-28T20:00:43;56505.19;;;-140.63;65.19
11302;BME280;5706;50.650;13.380;2023-01-28T20:03:11;56463.44;;;-140.63;64.80
11302;BME280;5706;50.650;13.380;2023-01-28T20:05:38;56473.38;;;-140.63;65.16
11302;BME280;5706;50.650;13.380;2023-01-28T20:08:06;56449.50;;;-140.63;64.92
11302;BME280;5706;50.650;13.380;2023-01-28T20:10:33;56471.38;;;-140.63;64.81
11302;BME280;5706;50.650;13.380;2023-01-28T20:13:01;56479.34;;;-140.63;64.81
11302;BME280;5706;50.650;13.380;2023-01-28T20:15:32;56477.34;;;-140.63;64.60
11302;BME280;5706;50.650;13.380;2023-01-28T20:18:00;56465.41;;;-140.63;65.20
11302;BME280;5706;50.650;13.380;2023-01-28T20:20:29;56467.41;;;-140.63;64.55
11302;BME280;5706;50.650;13.380;2023-01-28T20:22:59;56471.38;;;-140.63;64.32
11302;BME280;5706;50.650;13.380;2023-01-28T20:25:30;56491.28;;;-140.63;65.03
11302;BME280;5706;50.650;13.380;2023-01-28T20:27:58;56485.31;;;-140.63;64.37
11302;BME280;5706;50.650;13.380;2023-01-28T20:30:26;56431.63;;;-140.63;64.67
11302;BME280;5706;50.650;13.380;2023-01-28T20:32:55;56477.34;;;-140.63;64.42
11302;BME280;5706;50.650;13.380;2023-01-28T20:35:22;56457.47;;;-140.63;64.56
11302;BME280;5706;50.650;13.380;2023-01-28T20:37:50;56501.22;;;-140.63;64.58
11302;BME280;5706;50.650;13.380;2023-01-28T20:40:18;56485.31;;;-140.63;64.09
11302;BME280;5706;50.650;13.380;2023-01-28T20:42:46;56465.41;;;-140.63;64.01
11302;BME280;5706;50.650;13.380;2023-01-28T20:45:13;56481.31;;;-140.63;64.40
11302;BME280;5706;50.650;13.380;2023-01-28T20:47:41;56455.47;;;-140.63;64.17
11302;BME280;5706;50.650;13.380;2023-01-28T20:50:10;56469.41;;;-140.63;64.05
11302;BME280;5706;50.650;13.380;2023-01-28T20:52:38;56477.34;;;-140.63;64.27
11302;BME280;5706;50.650;13.380;2023-01-28T20:55:07;56445.53;;;-140.63;64.15
11302;BME280;5706;50.650;13.380;2023-01-28T20:57:36;56491.28;;;-140.63;63.58
11302;BME280;5706;50.650;13.380;2023-01-28T21:00:05;56491.28;;;-140.63;64.09
11302;BME280;5706;50.650;13.380;2023-01-28T21:02:33;56469.41;;;-140.63;63.89
11302;BME280;5706;50.650;13.380;2023-01-28T21:05:02;56485.31;;;-140.63;64.11
11302;BME280;5706;50.650;13.380;2023-01-28T21:07:32;56459.47;;;-140.63;64.12
11302;BME280;5706;50.650;13.380;2023-01-28T21:10:00;56471.38;;;-140.63;64.06
11302;BME280;5706;50.650;13.380;2023-01-28T21:12:28;56451.50;;;-140.63;64.00
11302;BME280;5706;50.650;13.380;2023-01-28T21:14:56;56469.41;;;-140.63;63.59
11302;BME280;5706;50.650;13.380;2023-01-28T21:17:24;56473.38;;;-140.63;63.14
11302;BME280;5706;50.650;13.380;2023-01-28T21:19:51;56501.22;;;-140.63;63.07
11302;BME280;5706;50.650;13.380;2023-01-28T21:22:19;56471.38;;;-140.63;63.61
11302;BME280;5706;50.650;13.380;2023-01-28T21:24:48;56505.19;;;-140.63;63.62
11302;BME280;5706;50.650;13.380;2023-01-28T21:27:15;56475.38;;;-140.63;63.49
11302;BME280;5706;50.650;13.380;2023-01-28T21:29:43;56475.38;;;-140.63;63.80
11302;BME280;5706;50.650;13.380;2023-01-28T21:32:11;56459.47;;;-140.63;63.69
11302;BME280;5706;50.650;13.380;2023-01-28T21:34:40;56467.41;;;-140.63;63.44
11302;BME280;5706;50.650;13.380;2023-01-28T21:37:15;56459.47;;;-140.63;63.35
11302;BME280;5706;50.650;13.380;2023-01-28T21:39:48;56439.56;;;-140.63;63.51
11302;BME280;5706;50.650;13.380;2023-01-28T21:42:37;56465.41;;;-140.63;63.51
11302;BME280;5706;50.650;13.380;2023-01-28T21:45:09;56467.41;;;-140.63;63.34
11302;BME280;5706;50.650;13.380;2023-01-28T21:47:37;56487.28;;;-140.63;63.53
11302;BME280;5706;50.650;13.380;2023-01-28T21:50:05;56467.41;;;-140.63;63.17
11302;BME280;5706;50.650;13.380;2023-01-28T21:52:34;56439.56;;;-140.63;63.26
11302;BME280;5706;50.650;13.380;2023-01-28T21:55:04;56445.53;;;-140.63;63.91
11302;BME280;5706;50.650;13.380;2023-01-28T21:57:32;56501.22;;;-140.63;63.57
11302;BME280;5706;50.650;13.380;2023-01-28T22:00:00;56479.34;;;-140.63;64.02
11302;BME280;5706;50.650;13.380;2023-01-28T22:02:30;56483.31;;;-140.63;63.32
11302;BME280;5706;50.650;13.380;2023-01-28T22:05:04;56459.47;;;-140.63;63.27
11302;BME280;5706;50.650;13.380;2023-01-28T22:07:37;56457.47;;;-140.63;63.70
11302;BME280;5706;50.650;13.380;2023-01-28T22:10:11;56469.41;;;-140.63;63.97
11302;BME280;5706;50.650;13.380;2023-01-28T22:12:49;56427.66;;;-140.63;63.39
11302;BME280;5706;50.650;13.380;2023-01-28T22:15:19;56463.44;;;-140.63;63.08
11302;BME280;5706;50.650;13.380;2023-01-28T22:17:47;56459.47;;;-140.63;64.04
11302;BME280;5706;50.650;13.380;2023-01-28T22:20:15;56471.38;;;-140.63;63.45